• Join FlightAware (Why Join?)
  • Login
  • US Flag 
01:03AM EDT


 

Airport Tracker/Info


-or-


 

Live Flight TrackerFlight Track Log ✈ AWE3794 ✈ 24-Apr-2013 ✈ KCLE - KPHL

Flight Track Log - Related Links

Times and Time Zones

All times are in EDT time to prevent confusion due to time zone crossing. See the AWE3794 flight status page for this flight to view local times or setup timezone preferences in your user account.

Time Position Orientation Groundspeed Altitude Reporting Facility
EDT Latitude Longitude Course Direction KTS MPH feet Rate Location/Type
09:54AM 41.3961 -81.8758 118° Southeast 167 192 1,700  Level Cleveland Center
09:56AM 41.2976 -81.6118 124° Southeast  Level FlightAware Approximate
09:56AM 41.3192 -81.8606 172° South 190 219 5,900  Level Cleveland Center
09:57AM 41.2404 -81.4972 124° Southeast  Level FlightAware Approximate
09:57AM 41.2908 -81.7742 114° Southeast 208 239 8,400  Level Cleveland Center
09:58AM 41.1830 -81.3827 124° Southeast  Level FlightAware Approximate
09:58AM 41.2583 -81.6797 115° Southeast 264 304 9,800  Level Cleveland Center
09:59AM 41.1270 -81.2674 118° Southeast  Level FlightAware Approximate
09:59AM 41.2281 -81.5714 110° East 296 341 11,900  Level Cleveland Center
10:00AM 41.1894 -81.4550 114° Southeast 316 364 14,100 1,980 Climbing Cleveland Center
10:01AM 41.1508 -81.3386 114° Southeast 334 384 15,900 1,800 Climbing Cleveland Center
10:02AM 41.1097 -81.2114 113° Southeast 358 412 17,800 1,920 Climbing Cleveland Center
10:03AM 41.0731 -81.0817 111° Southeast 372 428 19,800 1,680 Climbing Cleveland Center
10:04AM 41.0358 -80.9408 109° East 383 441 21,200 1,320 Climbing Cleveland Center
10:05AM 40.9967 -80.8033 111° Southeast 394 453 22,500 1,200 Climbing Cleveland Center
10:06AM 40.9594 -80.6767 111° Southeast 401 461 23,700 1,140 Climbing Cleveland Center
10:07AM 40.9197 -80.5336 110° East 406 467 24,800 600 Climbing Cleveland Center
10:08AM 40.8758 -80.3828 111° Southeast 417 480 25,000 60 Climbing Cleveland Center
10:09AM 40.8253 -80.2236 113° Southeast 444 511 25,000  Level Cleveland Center
10:10AM 40.7706 -80.0650 114° Southeast 457 526 25,000  Level Cleveland Center
10:11AM 40.7178 -79.9175 115° Southeast 457 526 25,000  Level Cleveland Center
10:12AM 40.6647 -79.7703 115° Southeast 446 513 25,000  Level Cleveland Center
10:13AM 40.6136 -79.6286 115° Southeast 435 501 25,000  Level Cleveland Center
10:14AM 40.5603 -79.4872 116° Southeast 435 501 25,000  Level Cleveland Center
10:15AM 40.5086 -79.3489 116° Southeast 425 489 25,000  Level Cleveland Center
10:16AM 40.4572 -79.2161 117° Southeast 419 482 25,000  Level Cleveland Center
10:17AM 40.4053 -79.0781 116° Southeast 419 482 25,000  Level Cleveland Center
10:18AM 40.3556 -78.9428 116° Southeast 413 475 25,000  Level Cleveland Center
10:19AM 40.3178 -78.7858 107° East 413 475 25,000  Level Cleveland Center
10:20AM 40.3153 -78.6308 91° East 408 470 25,000  Level Cleveland Center
10:21AM 40.3167 -78.4756 89° East 413 475 25,000  Level Cleveland Center
10:23AM 40.3111 -78.1019 91° East 428 493 25,000  Level New York Center
10:24AM 40.3122 -77.9467 89° East 428 493 25,000 -240 Level New York Center
10:25AM 40.3111 -77.7942 90° East 428 493 24,600 -960 Descending New York Center
10:26AM 40.3100 -77.6361 90° East 428 493 23,100 -1,500 Descending New York Center
10:27AM 40.3075 -77.4942 91° East 416 479 21,600 -1,560 Descending New York Center
10:28AM 40.3050 -77.3578 91° East 397 457 20,100 -1,620 Descending New York Center
10:29AM 40.3039 -77.2244 91° East 369 425 18,500 -1,080 Descending New York Center
10:30AM 40.3019 -77.1044 91° East 363 418 18,000 -300 Descending New York Center
10:31AM 40.2761 -76.9658 104° East 352 405 18,000 -120 Level New York Center
10:32AM 40.2475 -76.8328 106° East 373 429 17,800 -780 Descending New York Center
10:33AM 40.2167 -76.7022 107° East 373 429 16,500 -1,380 Descending New York Center
10:34AM 40.1858 -76.5692 107° East 378 435 15,200 -1,260 Descending New York Center
10:35AM 40.1581 -76.4528 107° East 378 435 14,000 -1,320 Descending New York Center
10:36AM 40.1303 -76.3425 108° East 365 420 12,900 -1,440 Descending FAA TRACON SMA TRACON (SMA)
10:36AM 40.1208 -76.2956 105° East 361 415 12,400 -1,380 Descending FAA TRACON SMA TRACON (SMA)
10:36AM 40.1175 -76.2544 96° East 361 415 12,000 -1,260 Descending FAA TRACON SMA TRACON (SMA)
10:37AM 40.1158 -76.2144 93° East 351 404 11,600 -1,440 Descending FAA TRACON SMA TRACON (SMA)
10:37AM 40.1122 -76.1761 97° East 352 405 11,100 -1,500 Descending FAA TRACON SMA TRACON (SMA)
10:37AM 40.1081 -76.1286 97° East 349 402 10,600 -1,320 Descending FAA TRACON SMA TRACON (SMA)
10:38AM 40.1058 -76.0897 94° East 346 398 10,200 -1,200 Descending FAA TRACON SMA TRACON (SMA)
10:38AM 40.1033 -76.0519 95° East 343 395 9,800 -1,260 Descending FAA TRACON SMA TRACON (SMA)
10:38AM 40.1011 -76.0122 94° East 333 383 9,400 -1,440 Descending FAA TRACON SMA TRACON (SMA)
10:39AM 40.0989 -75.9736 94° East 309 356 8,900 -1,320 Descending FAA TRACON SMA TRACON (SMA)
10:39AM 40.0967 -75.9406 95° East 301 346 8,500 -1,320 Descending FAA TRACON SMA TRACON (SMA)
10:39AM 40.0936 -75.9008 96° East 288 331 8,000 -1,320 Descending FAA TRACON SMA TRACON (SMA)
10:40AM 40.0917 -75.8694 95° East 285 328 7,600 -1,320 Descending FAA TRACON SMA TRACON (SMA)
10:40AM 40.0886 -75.8336 96° East 279 321 7,100 -1,620 Descending FAA TRACON SMA TRACON (SMA)
10:40AM 40.0861 -75.8006 96° East 278 320 6,600 -1,620 Descending FAA TRACON SMA TRACON (SMA)
10:41AM 40.0839 -75.7697 95° East 280 322 6,100 -900 Descending FAA TRACON SMA TRACON (SMA)
10:41AM 40.0817 -75.7378 95° East 281 323 6,000 -180 Descending FAA TRACON SMA TRACON (SMA)
10:41AM 40.0797 -75.6981 94° East 284 327 6,000  Level FAA TRACON SMA TRACON (SMA)
10:42AM 40.0789 -75.6742 93° East 284 327 6,000  Level FAA TRACON SMA TRACON (SMA)
10:42AM 40.0775 -75.6356 93° East 283 326 6,000  Level FAA TRACON SMA TRACON (SMA)
10:42AM 40.0753 -75.5953 94° East 284 327 6,000  Level FAA TRACON SMA TRACON (SMA)
10:43AM 40.0742 -75.5636 93° East 284 327 6,000  Level FAA TRACON SMA TRACON (SMA)
10:43AM 40.0725 -75.5322 94° East 285 328 6,000  Level FAA TRACON SMA TRACON (SMA)
10:43AM 40.0706 -75.4914 94° East 286 329 6,000  Level FAA TRACON SMA TRACON (SMA)
10:44AM 40.0689 -75.4589 94° East 285 328 6,000  Level FAA TRACON SMA TRACON (SMA)
10:44AM 40.0675 -75.4275 93° East 286 329 6,000  Level FAA TRACON SMA TRACON (SMA)
10:44AM 40.0669 -75.3914 91° East 286 329 6,000  Level FAA TRACON SMA TRACON (SMA)
10:45AM 40.0642 -75.3556 96° East 287 330 6,000  Level FAA TRACON SMA TRACON (SMA)
10:45AM 40.0625 -75.3231 94° East 288 331 6,000  Level FAA TRACON SMA TRACON (SMA)
10:45AM 40.0603 -75.2828 94° East 289 333 6,000  Level FAA TRACON SMA TRACON (SMA)
10:46AM 40.0564 -75.2522 99° East 287 330 6,000  Level FAA TRACON SMA TRACON (SMA)
10:46AM 40.0403 -75.2311 135° Southeast 254 292 6,000  Level FAA TRACON SMA TRACON (SMA)
10:46AM 40.0242 -75.2156 144° Southeast 229 264 6,000  Level FAA TRACON SMA TRACON (SMA)
10:47AM 40.0056 -75.1969 143° Southeast 219 252 6,000  Level FAA TRACON SMA TRACON (SMA)
10:47AM 39.9911 -75.1819 141° Southeast 218 251 6,000  Level FAA TRACON SMA TRACON (SMA)
10:47AM 39.9817 -75.1614 121° Southeast 227 261 6,000  Level FAA TRACON SMA TRACON (SMA)
10:48AM 39.9856 -75.1311 80° East 220 253 6,000  Level FAA TRACON SMA TRACON (SMA)
10:48AM 39.9900 -75.1083 76° East 215 247 6,000  Level FAA TRACON SMA TRACON (SMA)
10:48AM 39.9956 -75.0850 73° East 213 245 6,000  Level FAA TRACON SMA TRACON (SMA)
10:49AM 40.0017 -75.0581 73° East 207 238 6,000  Level FAA TRACON SMA TRACON (SMA)
10:49AM 40.0064 -75.0361 74° East 204 235 6,000  Level FAA TRACON SMA TRACON (SMA)
10:49AM 40.0133 -75.0117 70° East 206 237 6,000  Level FAA TRACON SMA TRACON (SMA)
10:50AM 40.0175 -74.9861 78° East 208 239 6,000  Level FAA TRACON SMA TRACON (SMA)
10:50AM 40.0225 -74.9633 74° East 210 242 6,000 -480 Level FAA TRACON SMA TRACON (SMA)
10:50AM 40.0178 -74.9372 103° East 209 241 5,700 -1,200 Descending FAA TRACON SMA TRACON (SMA)
10:51AM 40.0006 -74.9264 154° Southeast 199 229 5,200 -1,500 Descending FAA TRACON SMA TRACON (SMA)
10:51AM 39.9850 -74.9328 197° South 187 215 4,700 -1,740 Descending FAA TRACON SMA TRACON (SMA)
10:51AM 39.9681 -74.9456 210° Southwest 196 226 4,100 -1,140 Descending FAA TRACON SMA TRACON (SMA)
10:52AM 39.9531 -74.9575 211° Southwest 191 220 4,000 -300 Descending FAA TRACON SMA TRACON (SMA)
10:52AM 39.9403 -74.9678 212° Southwest 179 206 3,900 -600 Descending FAA TRACON SMA TRACON (SMA)
10:52AM 39.9344 -74.9836 244° Southwest 167 192 3,600 -1,080 Descending FAA TRACON SMA TRACON (SMA)
10:53AM 39.9306 -75.0044 256° West 161 185 3,200 -1,200 Descending FAA TRACON SMA TRACON (SMA)